sensor_id;sensor_type;location;lat;lon;timestamp;temperature;humidity
34829;DHT22;21042;47.620;12.188;2023-01-15T00:02:05;3.70;99.90
34829;DHT22;21042;47.620;12.188;2023-01-15T00:04:32;3.80;99.90
34829;DHT22;21042;47.620;12.188;2023-01-15T00:06:59;3.80;99.90
34829;DHT22;21042;47.620;12.188;2023-01-15T00:09:26;3.80;99.90
34829;DHT22;21042;47.620;12.188;2023-01-15T00:11:52;3.80;99.90
34829;DHT22;21042;47.620;12.188;2023-01-15T00:14:20;3.70;99.90
34829;DHT22;21042;47.620;12.188;2023-01-15T00:16:50;3.70;99.90
34829;DHT22;21042;47.620;12.188;2023-01-15T00:19:17;3.70;99.90
34829;DHT22;21042;47.620;12.188;2023-01-15T00:21:44;3.70;99.90
34829;DHT22;21042;47.620;12.188;2023-01-15T00:24:11;3.80;99.90
34829;DHT22;21042;47.620;12.188;2023-01-15T00:26:56;3.80;99.90
34829;DHT22;21042;47.620;12.188;2023-01-15T00:29:45;3.80;99.90
34829;DHT22;21042;47.620;12.188;2023-01-15T00:32:12;3.90;99.90
34829;DHT22;21042;47.620;12.188;2023-01-15T00:34:38;3.90;99.90
34829;DHT22;21042;47.620;12.188;2023-01-15T00:37:05;4.00;99.90
34829;DHT22;21042;47.620;12.188;2023-01-15T00:39:32;4.00;99.90
34829;DHT22;21042;47.620;12.188;2023-01-15T00:42:00;4.00;99.90
34829;DHT22;21042;47.620;12.188;2023-01-15T00:44:26;4.10;99.90
34829;DHT22;21042;47.620;12.188;2023-01-15T00:46:53;4.10;99.90
34829;DHT22;21042;47.620;12.188;2023-01-15T00:49:20;4.10;99.90
34829;DHT22;21042;47.620;12.188;2023-01-15T00:51:47;4.20;99.90
34829;DHT22;21042;47.620;12.188;2023-01-15T00:54:16;4.30;99.90
34829;DHT22;21042;47.620;12.188;2023-01-15T00:56:42;4.40;99.90
34829;DHT22;21042;47.620;12.188;2023-01-15T00:59:09;4.40;99.90
34829;DHT22;21042;47.620;12.188;2023-01-15T01:01:37;4.50;99.90
34829;DHT22;21042;47.620;12.188;2023-01-15T01:04:04;4.50;99.90
34829;DHT22;21042;47.620;12.188;2023-01-15T01:06:33;4.60;99.90
34829;DHT22;21042;47.620;12.188;2023-01-15T01:09:00;4.80;99.90
34829;DHT22;21042;47.620;12.188;2023-01-15T01:11:29;5.00;99.90
34829;DHT22;21042;47.620;12.188;2023-01-15T01:14:00;5.20;99.90
34829;DHT22;21042;47.620;12.188;2023-01-15T01:16:30;5.20;99.90
34829;DHT22;21042;47.620;12.188;2023-01-15T01:19:00;5.20;99.90
34829;DHT22;21042;47.620;12.188;2023-01-15T01:21:29;5.20;99.90
34829;DHT22;21042;47.620;12.188;2023-01-15T01:23:58;5.30;99.90
34829;DHT22;21042;47.620;12.188;2023-01-15T01:26:26;5.50;99.90
34829;DHT22;21042;47.620;12.188;2023-01-15T01:28:55;5.60;99.90
34829;DHT22;21042;47.620;12.188;2023-01-15T01:31:22;5.70;99.90
34829;DHT22;21042;47.620;12.188;2023-01-15T01:33:51;5.70;99.90
34829;DHT22;21042;47.620;12.188;2023-01-15T01:36:19;5.60;99.90
34829;DHT22;21042;47.620;12.188;2023-01-15T01:38:47;5.60;99.90
34829;DHT22;21042;47.620;12.188;2023-01-15T01:41:18;5.50;99.90
34829;DHT22;21042;47.620;12.188;2023-01-15T01:46:19;5.80;99.90
34829;DHT22;21042;47.620;12.188;2023-01-15T01:48:48;6.00;99.90
34829;DHT22;21042;47.620;12.188;2023-01-15T01:51:17;6.10;99.90
34829;DHT22;21042;47.620;12.188;2023-01-15T01:53:45;6.20;99.90
34829;DHT22;21042;47.620;12.188;2023-01-15T01:56:12;6.20;99.90
34829;DHT22;21042;47.620;12.188;2023-01-15T01:58:44;6.20;99.90
34829;DHT22;21042;47.620;12.188;2023-01-15T02:01:14;6.10;99.90
34829;DHT22;21042;47.620;12.188;2023-01-15T02:03:42;6.30;99.90
34829;DHT22;21042;47.620;12.188;2023-01-15T02:06:10;6.40;99.90
34829;DHT22;21042;47.620;12.188;2023-01-15T02:08:37;6.60;99.90
34829;DHT22;21042;47.620;12.188;2023-01-15T02:11:06;6.70;99.90
34829;DHT22;21042;47.620;12.188;2023-01-15T02:13:37;6.80;99.90
34829;DHT22;21042;47.620;12.188;2023-01-15T02:19:21;6.50;99.90
34829;DHT22;21042;47.620;12.188;2023-01-15T02:24:42;6.30;99.90
34829;DHT22;21042;47.620;12.188;2023-01-15T02:27:17;6.10;99.90
34829;DHT22;21042;47.620;12.188;2023-01-15T02:29:56;6.00;99.90
34829;DHT22;21042;47.620;12.188;2023-01-15T02:35:19;5.70;99.90
34829;DHT22;21042;47.620;12.188;2023-01-15T02:37:52;5.70;99.90
34829;DHT22;21042;47.620;12.188;2023-01-15T02:40:23;5.70;99.90
34829;DHT22;21042;47.620;12.188;2023-01-15T02:42:52;5.70;99.90
34829;DHT22;21042;47.620;12.188;2023-01-15T02:45:26;5.70;99.90
34829;DHT22;21042;47.620;12.188;2023-01-15T02:48:02;5.70;99.90
34829;DHT22;21042;47.620;12.188;2023-01-15T02:50:35;5.70;99.90
34829;DHT22;21042;47.620;12.188;2023-01-15T02:53:06;5.60;99.90
34829;DHT22;21042;47.620;12.188;2023-01-15T02:55:40;5.60;99.90
34829;DHT22;21042;47.620;12.188;2023-01-15T02:58:12;5.50;99.90
34829;DHT22;21042;47.620;12.188;2023-01-15T03:00:44;5.50;99.90
34829;DHT22;21042;47.620;12.188;2023-01-15T03:03:17;5.40;99.90
34829;DHT22;21042;47.620;12.188;2023-01-15T03:05:59;5.40;99.90
34829;DHT22;21042;47.620;12.188;2023-01-15T03:08:28;5.30;99.90
34829;DHT22;21042;47.620;12.188;2023-01-15T03:13:50;5.30;99.90
34829;DHT22;21042;47.620;12.188;2023-01-15T03:21:57;5.30;99.90
34829;DHT22;21042;47.620;12.188;2023-01-15T03:27:03;5.30;99.90
34829;DHT22;21042;47.620;12.188;2023-01-15T03:29:36;5.30;99.90
34829;DHT22;21042;47.620;12.188;2023-01-15T03:32:05;5.30;99.90
34829;DHT22;21042;47.620;12.188;2023-01-15T03:34:45;5.30;99.90
34829;DHT22;21042;47.620;12.188;2023-01-15T03:37:17;5.20;99.90
34829;DHT22;21042;47.620;12.188;2023-01-15T03:39:46;5.20;99.90
34829;DHT22;21042;47.620;12.188;2023-01-15T03:45:22;5.20;99.90
34829;DHT22;21042;47.620;12.188;2023-01-15T03:48:13;5.20;99.90
34829;DHT22;21042;47.620;12.188;2023-01-15T03:50:55;5.10;99.90
34829;DHT22;21042;47.620;12.188;2023-01-15T03:53:41;5.10;99.90
34829;DHT22;21042;47.620;12.188;2023-01-15T03:56:32;5.00;99.90
34829;DHT22;21042;47.620;12.188;2023-01-15T03:59:11;5.00;99.90
34829;DHT22;21042;47.620;12.188;2023-01-15T04:01:51;5.00;99.90
34829;DHT22;21042;47.620;12.188;2023-01-15T04:04:23;5.00;99.90
34829;DHT22;21042;47.620;12.188;2023-01-15T04:06:53;5.00;99.90
34829;DHT22;21042;47.620;12.188;2023-01-15T04:09:21;5.10;99.90
34829;DHT22;21042;47.620;12.188;2023-01-15T04:11:52;5.10;99.90
34829;DHT22;21042;47.620;12.188;2023-01-15T04:14:19;5.10;99.90
34829;DHT22;21042;47.620;12.188;2023-01-15T04:16:49;5.20;99.90
34829;DHT22;21042;47.620;12.188;2023-01-15T04:19:16;5.20;99.90
34829;DHT22;21042;47.620;12.188;2023-01-15T04:21:51;5.20;99.90
34829;DHT22;21042;47.620;12.188;2023-01-15T04:24:57;5.20;99.90
34829;DHT22;21042;47.620;12.188;2023-01-15T04:27:24;5.20;99.90
34829;DHT22;21042;47.620;12.188;2023-01-15T04:29:52;5.30;99.90
34829;DHT22;21042;47.620;12.188;2023-01-15T04:32:19;5.40;99.90
34829;DHT22;21042;47.620;12.188;2023-01-15T04:34:46;5.40;99.90
34829;DHT22;21042;47.620;12.188;2023-01-15T04:37:13;5.40;99.90
34829;DHT22;21042;47.620;12.188;2023-01-15T04:39:40;5.40;99.90
34829;DHT22;21042;47.620;12.188;2023-01-15T04:42:10;5.50;99.90
34829;DHT22;21042;47.620;12.188;2023-01-15T04:44:56;5.70;99.90
34829;DHT22;21042;47.620;12.188;2023-01-15T04:47:23;5.70;99.90
34829;DHT22;21042;47.620;12.188;2023-01-15T04:49:50;5.70;99.90
34829;DHT22;21042;47.620;12.188;2023-01-15T04:52:17;5.70;99.90
34829;DHT22;21042;47.620;12.188;2023-01-15T04:54:44;5.60;99.90
34829;DHT22;21042;47.620;12.188;2023-01-15T04:57:10;5.50;99.90
34829;DHT22;21042;47.620;12.188;2023-01-15T04:59:37;5.50;99.90
34829;DHT22;21042;47.620;12.188;2023-01-15T05:02:04;5.50;99.90
34829;DHT22;21042;47.620;12.188;2023-01-15T05:04:33;5.50;99.90
34829;DHT22;21042;47.620;12.188;2023-01-15T05:07:01;5.50;99.90
34829;DHT22;21042;47.620;12.188;2023-01-15T05:09:28;5.50;99.90
34829;DHT22;21042;47.620;12.188;2023-01-15T05:11:55;5.60;99.90
34829;DHT22;21042;47.620;12.188;2023-01-15T05:14:22;5.80;99.90
34829;DHT22;21042;47.620;12.188;2023-01-15T05:16:49;5.80;99.90
34829;DHT22;21042;47.620;12.188;2023-01-15T05:19:15;5.90;99.90
34829;DHT22;21042;47.620;12.188;2023-01-15T05:21:43;5.90;99.90
34829;DHT22;21042;47.620;12.188;2023-01-15T05:24:15;5.80;99.90
34829;DHT22;21042;47.620;12.188;2023-01-15T05:26:42;5.70;99.90
34829;DHT22;21042;47.620;12.188;2023-01-15T05:29:10;5.60;99.90
34829;DHT22;21042;47.620;12.188;2023-01-15T05:31:37;5.70;99.90
34829;DHT22;21042;47.620;12.188;2023-01-15T05:34:04;5.80;99.90
34829;DHT22;21042;47.620;12.188;2023-01-15T05:36:31;5.80;99.90
34829;DHT22;21042;47.620;12.188;2023-01-15T05:39:07;5.80;99.90
34829;DHT22;21042;47.620;12.188;2023-01-15T05:42:24;5.80;99.90
34829;DHT22;21042;47.620;12.188;2023-01-15T05:44:50;5.90;99.90
34829;DHT22;21042;47.620;12.188;2023-01-15T05:47:17;5.90;99.90
34829;DHT22;21042;47.620;12.188;2023-01-15T05:49:44;5.80;99.90
34829;DHT22;21042;47.620;12.188;2023-01-15T05:52:13;6.00;99.90
34829;DHT22;21042;47.620;12.188;2023-01-15T05:54:40;6.00;99.90
34829;DHT22;21042;47.620;12.188;2023-01-15T05:57:11;6.00;99.90
34829;DHT22;21042;47.620;12.188;2023-01-15T05:59:38;5.90;99.90
34829;DHT22;21042;47.620;12.188;2023-01-15T06:02:05;6.00;99.90
34829;DHT22;21042;47.620;12.188;2023-01-15T06:04:32;6.10;99.90
34829;DHT22;21042;47.620;12.188;2023-01-15T06:06:59;6.30;99.90
34829;DHT22;21042;47.620;12.188;2023-01-15T06:09:26;6.40;99.90
34829;DHT22;21042;47.620;12.188;2023-01-15T06:11:53;6.40;99.90
34829;DHT22;21042;47.620;12.188;2023-01-15T06:14:21;6.30;99.90
34829;DHT22;21042;47.620;12.188;2023-01-15T06:16:47;6.30;99.90
34829;DHT22;21042;47.620;12.188;2023-01-15T06:19:14;6.30;99.90
34829;DHT22;21042;47.620;12.188;2023-01-15T06:21:41;6.40;99.90
34829;DHT22;21042;47.620;12.188;2023-01-15T06:24:08;6.40;99.90
34829;DHT22;21042;47.620;12.188;2023-01-15T06:26:36;6.50;99.90
34829;DHT22;21042;47.620;12.188;2023-01-15T06:29:03;6.60;99.90
34829;DHT22;21042;47.620;12.188;2023-01-15T06:31:30;6.70;99.90
34829;DHT22;21042;47.620;12.188;2023-01-15T06:33:58;6.70;99.90
34829;DHT22;21042;47.620;12.188;2023-01-15T06:36:25;6.50;99.90
34829;DHT22;21042;47.620;12.188;2023-01-15T06:38:52;6.40;99.90
34829;DHT22;21042;47.620;12.188;2023-01-15T06:41:22;6.30;99.90
34829;DHT22;21042;47.620;12.188;2023-01-15T06:44:12;6.30;99.90
34829;DHT22;21042;47.620;12.188;2023-01-15T06:47:02;6.30;99.90
34829;DHT22;21042;47.620;12.188;2023-01-15T06:49:51;6.30;99.90
34829;DHT22;21042;47.620;12.188;2023-01-15T06:52:18;6.30;99.90
34829;DHT22;21042;47.620;12.188;2023-01-15T06:54:45;6.20;99.90
34829;DHT22;21042;47.620;12.188;2023-01-15T06:57:12;6.20;99.90
34829;DHT22;21042;47.620;12.188;2023-01-15T06:59:39;6.30;99.90
34829;DHT22;21042;47.620;12.188;2023-01-15T07:02:06;6.30;99.90
34829;DHT22;21042;47.620;12.188;2023-01-15T07:04:32;6.30;99.90
34829;DHT22;21042;47.620;12.188;2023-01-15T07:06:59;6.30;99.90
34829;DHT22;21042;47.620;12.188;2023-01-15T07:09:26;6.30;99.90
34829;DHT22;21042;47.620;12.188;2023-01-15T07:11:53;6.20;99.90
34829;DHT22;21042;47.620;12.188;2023-01-15T07:14:22;6.10;99.90
34829;DHT22;21042;47.620;12.188;2023-01-15T07:16:50;6.00;99.90
34829;DHT22;21042;47.620;12.188;2023-01-15T07:19:18;6.00;99.90
34829;DHT22;21042;47.620;12.188;2023-01-15T07:21:45;5.90;99.90
34829;DHT22;21042;47.620;12.188;2023-01-15T07:24:12;5.80;99.90
34829;DHT22;21042;47.620;12.188;2023-01-15T07:26:40;5.70;99.90
34829;DHT22;21042;47.620;12.188;2023-01-15T07:29:07;5.80;99.90
34829;DHT22;21042;47.620;12.188;2023-01-15T07:31:34;5.80;99.90
34829;DHT22;21042;47.620;12.188;2023-01-15T07:34:01;5.80;99.90
34829;DHT22;21042;47.620;12.188;2023-01-15T07:36:28;5.80;99.90
34829;DHT22;21042;47.620;12.188;2023-01-15T07:38:54;5.80;99.90
34829;DHT22;21042;47.620;12.188;2023-01-15T07:41:21;5.80;99.90
34829;DHT22;21042;47.620;12.188;2023-01-15T07:44:10;5.80;99.90
34829;DHT22;21042;47.620;12.188;2023-01-15T07:46:55;5.90;99.90
34829;DHT22;21042;47.620;12.188;2023-01-15T07:49:42;5.80;99.90
34829;DHT22;21042;47.620;12.188;2023-01-15T07:52:16;5.80;99.90
34829;DHT22;21042;47.620;12.188;2023-01-15T07:54:44;5.80;99.90
34829;DHT22;21042;47.620;12.188;2023-01-15T07:57:14;5.80;99.90
34829;DHT22;21042;47.620;12.188;2023-01-15T07:59:42;5.80;99.90
34829;DHT22;21042;47.620;12.188;2023-01-15T08:02:08;5.80;99.90
34829;DHT22;21042;47.620;12.188;2023-01-15T08:04:35;5.80;99.90
34829;DHT22;21042;47.620;12.188;2023-01-15T08:07:02;5.80;99.90
34829;DHT22;21042;47.620;12.188;2023-01-15T08:09:29;5.90;99.90
34829;DHT22;21042;47.620;12.188;2023-01-15T08:12:01;5.80;99.90
34829;DHT22;21042;47.620;12.188;2023-01-15T08:14:46;5.80;99.90
34829;DHT22;21042;47.620;12.188;2023-01-15T08:17:35;5.90;99.90
34829;DHT22;21042;47.620;12.188;2023-01-15T08:20:04;5.90;99.90
34829;DHT22;21042;47.620;12.188;2023-01-15T08:22:32;5.90;99.90
34829;DHT22;21042;47.620;12.188;2023-01-15T08:24:58;5.90;99.90
34829;DHT22;21042;47.620;12.188;2023-01-15T08:27:25;5.90;99.90
34829;DHT22;21042;47.620;12.188;2023-01-15T08:29:52;5.90;99.90
34829;DHT22;21042;47.620;12.188;2023-01-15T08:32:19;5.90;99.90
34829;DHT22;21042;47.620;12.188;2023-01-15T08:34:46;6.00;99.90
34829;DHT22;21042;47.620;12.188;2023-01-15T08:37:12;6.00;99.90
34829;DHT22;21042;47.620;12.188;2023-01-15T08:39:39;6.10;99.90
34829;DHT22;21042;47.620;12.188;2023-01-15T08:42:06;6.10;99.90
34829;DHT22;21042;47.620;12.188;2023-01-15T08:44:33;6.20;99.90
34829;DHT22;21042;47.620;12.188;2023-01-15T08:47:00;6.20;99.90
34829;DHT22;21042;47.620;12.188;2023-01-15T08:49:27;6.30;99.90
34829;DHT22;21042;47.620;12.188;2023-01-15T08:51:53;6.40;99.90
34829;DHT22;21042;47.620;12.188;2023-01-15T08:54:21;6.50;99.90
34829;DHT22;21042;47.620;12.188;2023-01-15T08:56:50;6.50;99.90
34829;DHT22;21042;47.620;12.188;2023-01-15T08:59:17;6.60;99.90
34829;DHT22;21042;47.620;12.188;2023-01-15T09:01:44;6.60;99.90
34829;DHT22;21042;47.620;12.188;2023-01-15T09:04:16;6.70;99.90
34829;DHT22;21042;47.620;12.188;2023-01-15T09:06:43;6.80;99.90
34829;DHT22;21042;47.620;12.188;2023-01-15T09:09:10;6.90;99.90
34829;DHT22;21042;47.620;12.188;2023-01-15T09:11:38;7.00;99.90
34829;DHT22;21042;47.620;12.188;2023-01-15T09:14:07;7.10;99.90
34829;DHT22;21042;47.620;12.188;2023-01-15T09:16:54;7.20;99.90
34829;DHT22;21042;47.620;12.188;2023-01-15T09:19:21;7.30;99.90
34829;DHT22;21042;47.620;12.188;2023-01-15T09:21:48;7.30;99.90
34829;DHT22;21042;47.620;12.188;2023-01-15T09:24:14;7.40;99.90
34829;DHT22;21042;47.620;12.188;2023-01-15T09:26:41;7.40;99.90
34829;DHT22;21042;47.620;12.188;2023-01-15T09:29:09;7.40;99.90
34829;DHT22;21042;47.620;12.188;2023-01-15T09:31:36;7.40;99.90
34829;DHT22;21042;47.620;12.188;2023-01-15T09:34:03;7.40;99.90
34829;DHT22;21042;47.620;12.188;2023-01-15T09:36:32;7.40;99.90
34829;DHT22;21042;47.620;12.188;2023-01-15T09:39:00;7.40;99.90
34829;DHT22;21042;47.620;12.188;2023-01-15T09:42:13;7.50;99.90
34829;DHT22;21042;47.620;12.188;2023-01-15T09:45:04;7.60;99.90
34829;DHT22;21042;47.620;12.188;2023-01-15T09:47:42;7.70;99.90
34829;DHT22;21042;47.620;12.188;2023-01-15T09:50:40;7.80;99.90
34829;DHT22;21042;47.620;12.188;2023-01-15T09:55:53;8.00;99.90
34829;DHT22;21042;47.620;12.188;2023-01-15T09:58:27;8.20;99.90
34829;DHT22;21042;47.620;12.188;2023-01-15T10:00:56;8.20;99.90
34829;DHT22;21042;47.620;12.188;2023-01-15T10:03:42;8.20;99.90
34829;DHT22;21042;47.620;12.188;2023-01-15T10:06:28;8.20;99.90
34829;DHT22;21042;47.620;12.188;2023-01-15T10:09:14;8.20;99.90
34829;DHT22;21042;47.620;12.188;2023-01-15T10:11:46;8.30;99.90
34829;DHT22;21042;47.620;12.188;2023-01-15T10:17:48;8.40;99.90
34829;DHT22;21042;47.620;12.188;2023-01-15T10:28:40;8.70;99.90
34829;DHT22;21042;47.620;12.188;2023-01-15T10:31:21;8.80;99.90
34829;DHT22;21042;47.620;12.188;2023-01-15T10:36:47;9.00;99.90
34829;DHT22;21042;47.620;12.188;2023-01-15T10:39:28;9.10;99.90
34829;DHT22;21042;47.620;12.188;2023-01-15T10:42:11;9.00;99.90
34829;DHT22;21042;47.620;12.188;2023-01-15T10:44:47;9.00;99.90
34829;DHT22;21042;47.620;12.188;2023-01-15T10:47:24;9.00;99.90
34829;DHT22;21042;47.620;12.188;2023-01-15T10:49:52;9.00;99.90
34829;DHT22;21042;47.620;12.188;2023-01-15T10:52:30;8.90;99.90
34829;DHT22;21042;47.620;12.188;2023-01-15T10:55:26;8.90;99.90
34829;DHT22;21042;47.620;12.188;2023-01-15T10:57:58;8.70;99.90
34829;DHT22;21042;47.620;12.188;2023-01-15T11:00:37;8.60;99.90
34829;DHT22;21042;47.620;12.188;2023-01-15T11:03:12;8.60;99.90
34829;DHT22;21042;47.620;12.188;2023-01-15T11:05:42;8.50;99.90
34829;DHT22;21042;47.620;12.188;2023-01-15T11:08:23;8.40;99.90
34829;DHT22;21042;47.620;12.188;2023-01-15T11:11:42;8.30;99.90
34829;DHT22;21042;47.620;12.188;2023-01-15T11:14:42;8.30;99.90
34829;DHT22;21042;47.620;12.188;2023-01-15T11:17:48;8.30;99.90
34829;DHT22;21042;47.620;12.188;2023-01-15T11:20:51;8.40;99.90
34829;DHT22;21042;47.620;12.188;2023-01-15T11:23:20;8.40;99.90
34829;DHT22;21042;47.620;12.188;2023-01-15T11:25:52;8.30;99.90
34829;DHT22;21042;47.620;12.188;2023-01-15T11:31:06;8.10;99.90
34829;DHT22;21042;47.620;12.188;2023-01-15T11:33:34;8.20;99.90
34829;DHT22;21042;47.620;12.188;2023-01-15T11:36:04;8.20;99.90
34829;DHT22;21042;47.620;12.188;2023-01-15T11:38:43;8.30;99.90
34829;DHT22;21042;47.620;12.188;2023-01-15T11:43:57;8.30;99.90
34829;DHT22;21042;47.620;12.188;2023-01-15T11:46:45;8.30;99.90
34829;DHT22;21042;47.620;12.188;2023-01-15T11:49:30;8.30;99.90
34829;DHT22;21042;47.620;12.188;2023-01-15T11:52:21;8.30;99.90
34829;DHT22;21042;47.620;12.188;2023-01-15T11:54:52;8.40;99.90
34829;DHT22;21042;47.620;12.188;2023-01-15T11:57:32;8.30;99.90
34829;DHT22;21042;47.620;12.188;2023-01-15T12:00:02;8.00;99.90
34829;DHT22;21042;47.620;12.188;2023-01-15T12:02:40;7.80;99.90
34829;DHT22;21042;47.620;12.188;2023-01-15T12:05:20;7.70;99.90
34829;DHT22;21042;47.620;12.188;2023-01-15T12:07:49;7.50;99.90
34829;DHT22;21042;47.620;12.188;2023-01-15T12:10:26;7.40;99.90
34829;DHT22;21042;47.620;12.188;2023-01-15T12:16:24;7.20;99.90
34829;DHT22;21042;47.620;12.188;2023-01-15T12:22:03;7.10;99.90
34829;DHT22;21042;47.620;12.188;2023-01-15T12:29:59;7.00;99.90
34829;DHT22;21042;47.620;12.188;2023-01-15T12:32:32;7.00;99.90
34829;DHT22;21042;47.620;12.188;2023-01-15T12:35:06;6.90;99.90
34829;DHT22;21042;47.620;12.188;2023-01-15T12:43:14;7.00;99.90
34829;DHT22;21042;47.620;12.188;2023-01-15T12:46:01;7.00;99.90
34829;DHT22;21042;47.620;12.188;2023-01-15T12:48:56;7.00;99.90
34829;DHT22;21042;47.620;12.188;2023-01-15T12:51:29;7.00;99.90
34829;DHT22;21042;47.620;12.188;2023-01-15T12:54:04;7.10;99.90
34829;DHT22;21042;47.620;12.188;2023-01-15T12:59:34;6.90;99.90
34829;DHT22;21042;47.620;12.188;2023-01-15T13:04:56;6.70;99.90
34829;DHT22;21042;47.620;12.188;2023-01-15T13:07:39;6.60;99.90
34829;DHT22;21042;47.620;12.188;2023-01-15T13:10:17;6.50;99.90
34829;DHT22;21042;47.620;12.188;2023-01-15T13:12:45;6.40;99.90
34829;DHT22;21042;47.620;12.188;2023-01-15T13:15:16;6.40;99.90
34829;DHT22;21042;47.620;12.188;2023-01-15T13:18:01;6.30;99.90
34829;DHT22;21042;47.620;12.188;2023-01-15T13:20:42;6.30;99.90
34829;DHT22;21042;47.620;12.188;2023-01-15T13:26:12;6.20;99.90
34829;DHT22;21042;47.620;12.188;2023-01-15T13:28:56;6.20;99.90
34829;DHT22;21042;47.620;12.188;2023-01-15T13:37:27;6.20;99.90
34829;DHT22;21042;47.620;12.188;2023-01-15T13:40:02;6.20;99.90
34829;DHT22;21042;47.620;12.188;2023-01-15T13:42:30;6.10;99.90
34829;DHT22;21042;47.620;12.188;2023-01-15T13:45:22;6.10;99.90
34829;DHT22;21042;47.620;12.188;2023-01-15T13:48:47;6.00;99.90
34829;DHT22;21042;47.620;12.188;2023-01-15T13:50:57;5.90;99.90
34829;DHT22;21042;47.620;12.188;2023-01-15T13:53:43;5.80;99.90
34829;DHT22;21042;47.620;12.188;2023-01-15T13:56:12;5.70;99.90
34829;DHT22;21042;47.620;12.188;2023-01-15T13:58:55;5.60;99.90
34829;DHT22;21042;47.620;12.188;2023-01-15T14:01:33;5.50;99.90
34829;DHT22;21042;47.620;12.188;2023-01-15T14:09:11;5.30;99.90
34829;DHT22;21042;47.620;12.188;2023-01-15T14:23:03;5.20;99.90
34829;DHT22;21042;47.620;12.188;2023-01-15T14:28:41;5.10;99.90
34829;DHT22;21042;47.620;12.188;2023-01-15T14:34:22;5.00;99.90
34829;DHT22;21042;47.620;12.188;2023-01-15T14:42:01;4.90;99.90
34829;DHT22;21042;47.620;12.188;2023-01-15T14:44:55;4.90;99.90
34829;DHT22;21042;47.620;12.188;2023-01-15T14:47:31;4.90;99.90
34829;DHT22;21042;47.620;12.188;2023-01-15T14:50:21;4.80;99.90
34829;DHT22;21042;47.620;12.188;2023-01-15T14:52:54;4.80;99.90
34829;DHT22;21042;47.620;12.188;2023-01-15T14:55:22;4.80;99.90
34829;DHT22;21042;47.620;12.188;2023-01-15T14:57:57;4.80;99.90
34829;DHT22;21042;47.620;12.188;2023-01-15T15:00:32;4.70;99.90
34829;DHT22;21042;47.620;12.188;2023-01-15T15:03:00;4.70;99.90
34829;DHT22;21042;47.620;12.188;2023-01-15T15:05:28;4.60;99.90
34829;DHT22;21042;47.620;12.188;2023-01-15T15:07:57;4.60;99.90
34829;DHT22;21042;47.620;12.188;2023-01-15T15:10:30;4.60;99.90
34829;DHT22;21042;47.620;12.188;2023-01-15T15:13:15;4.50;99.90
34829;DHT22;21042;47.620;12.188;2023-01-15T15:15:53;4.50;99.90
34829;DHT22;21042;47.620;12.188;2023-01-15T15:18:31;4.50;99.90
34829;DHT22;21042;47.620;12.188;2023-01-15T15:21:15;4.60;99.90
34829;DHT22;21042;47.620;12.188;2023-01-15T15:26:26;4.60;99.90
34829;DHT22;21042;47.620;12.188;2023-01-15T15:29:00;4.60;99.90
34829;DHT22;21042;47.620;12.188;2023-01-15T15:31:30;4.60;99.90
34829;DHT22;21042;47.620;12.188;2023-01-15T15:33:58;4.50;99.90
34829;DHT22;21042;47.620;12.188;2023-01-15T15:36:28;4.60;99.90
34829;DHT22;21042;47.620;12.188;2023-01-15T15:38:58;4.60;99.90
34829;DHT22;21042;47.620;12.188;2023-01-15T15:41:28;4.60;99.90
34829;DHT22;21042;47.620;12.188;2023-01-15T15:44:40;4.50;99.90
34829;DHT22;21042;47.620;12.188;2023-01-15T15:47:37;4.60;99.90
34829;DHT22;21042;47.620;12.188;2023-01-15T15:50:30;4.50;99.90
34829;DHT22;21042;47.620;12.188;2023-01-15T15:52:57;4.60;99.90
34829;DHT22;21042;47.620;12.188;2023-01-15T15:55:35;4.60;99.90
34829;DHT22;21042;47.620;12.188;2023-01-15T15:58:03;4.60;99.90
34829;DHT22;21042;47.620;12.188;2023-01-15T16:00:37;4.60;99.90
34829;DHT22;21042;47.620;12.188;2023-01-15T16:03:28;4.60;99.90
34829;DHT22;21042;47.620;12.188;2023-01-15T16:06:01;4.60;99.90
34829;DHT22;21042;47.620;12.188;2023-01-15T16:08:32;4.60;99.90
34829;DHT22;21042;47.620;12.188;2023-01-15T16:11:05;4.60;99.90
34829;DHT22;21042;47.620;12.188;2023-01-15T16:13:38;4.60;99.90
34829;DHT22;21042;47.620;12.188;2023-01-15T16:16:06;4.60;99.90
34829;DHT22;21042;47.620;12.188;2023-01-15T16:18:36;4.60;99.90
34829;DHT22;21042;47.620;12.188;2023-01-15T16:21:15;4.50;99.90
34829;DHT22;21042;47.620;12.188;2023-01-15T16:23:42;4.50;99.90
34829;DHT22;21042;47.620;12.188;2023-01-15T16:26:21;4.60;99.90
34829;DHT22;21042;47.620;12.188;2023-01-15T16:28:55;4.60;99.90
34829;DHT22;21042;47.620;12.188;2023-01-15T16:31:22;4.60;99.90
34829;DHT22;21042;47.620;12.188;2023-01-15T16:33:54;4.60;99.90
34829;DHT22;21042;47.620;12.188;2023-01-15T16:36:23;4.60;99.90
34829;DHT22;21042;47.620;12.188;2023-01-15T16:38:50;4.50;99.90
34829;DHT22;21042;47.620;12.188;2023-01-15T16:41:24;4.50;99.90
34829;DHT22;21042;47.620;12.188;2023-01-15T16:43:59;4.50;99.90
34829;DHT22;21042;47.620;12.188;2023-01-15T16:46:32;4.50;99.90
34829;DHT22;21042;47.620;12.188;2023-01-15T16:49:24;4.50;99.90
34829;DHT22;21042;47.620;12.188;2023-01-15T16:51:55;4.50;99.90
34829;DHT22;21042;47.620;12.188;2023-01-15T16:57:04;4.50;99.90
34829;DHT22;21042;47.620;12.188;2023-01-15T17:00:00;4.50;99.90
34829;DHT22;21042;47.620;12.188;2023-01-15T17:02:43;4.50;99.90
34829;DHT22;21042;47.620;12.188;2023-01-15T17:05:22;4.60;99.90
34829;DHT22;21042;47.620;12.188;2023-01-15T17:07:50;4.60;99.90
34829;DHT22;21042;47.620;12.188;2023-01-15T17:10:21;4.50;99.90
34829;DHT22;21042;47.620;12.188;2023-01-15T17:12:48;4.50;99.90
34829;DHT22;21042;47.620;12.188;2023-01-15T17:17:50;4.40;99.90
34829;DHT22;21042;47.620;12.188;2023-01-15T17:20:18;4.40;99.90
34829;DHT22;21042;47.620;12.188;2023-01-15T17:22:47;4.30;99.90
34829;DHT22;21042;47.620;12.188;2023-01-15T17:25:31;4.40;99.90
34829;DHT22;21042;47.620;12.188;2023-01-15T17:28:00;4.30;99.90
34829;DHT22;21042;47.620;12.188;2023-01-15T17:30:28;4.20;99.90
34829;DHT22;21042;47.620;12.188;2023-01-15T17:33:03;4.20;99.90
34829;DHT22;21042;47.620;12.188;2023-01-15T17:35:33;4.30;99.90
34829;DHT22;21042;47.620;12.188;2023-01-15T17:38:04;4.20;99.90
34829;DHT22;21042;47.620;12.188;2023-01-15T17:41:25;4.20;99.90
34829;DHT22;21042;47.620;12.188;2023-01-15T17:43:52;4.00;99.90
34829;DHT22;21042;47.620;12.188;2023-01-15T17:46:18;3.90;99.90
34829;DHT22;21042;47.620;12.188;2023-01-15T17:48:45;4.00;99.90
34829;DHT22;21042;47.620;12.188;2023-01-15T17:51:14;3.90;99.90
34829;DHT22;21042;47.620;12.188;2023-01-15T17:53:41;3.90;99.90
34829;DHT22;21042;47.620;12.188;2023-01-15T17:56:08;3.90;99.90
34829;DHT22;21042;47.620;12.188;2023-01-15T17:58:53;3.80;99.90
34829;DHT22;21042;47.620;12.188;2023-01-15T18:01:58;3.80;99.90
34829;DHT22;21042;47.620;12.188;2023-01-15T18:04:47;3.90;99.90